Time;durP1;ratioP1;P1;durP2;ratioP2;P2;SDS_P1;SDS_P2;PMS_P1;PMS_P2;Temp;Humidity;BMP_temperature;BMP_pressure;BME280_temperature;BME280_humidity;BME280_pressure;Samples;Min_cycle;Max_cycle;Signal;HPM_P1;HPM_P2
2022/04/02 00:04:00;;;;;;;16.45;11.88;;;;;;;-0.63;89.75;94602.41;10318902;28;97269;-61
2022/04/02 00:09:05;;;;;;;28.90;20.95;;;;;;;-0.64;89.65;94593.09;10313775;28;97025;-62
2022/04/02 00:14:08;;;;;;;17.73;11.07;;;;;;;-0.60;88.99;94595.28;10332792;28;96983;-60
2022/04/02 00:19:11;;;;;;;14.30;10.48;;;;;;;-0.68;89.46;94597.66;10323864;28;96827;-61
2022/04/02 00:24:15;;;;;;;13.15;9.85;;;;;;;-0.77;88.71;94594.06;10315134;28;96877;-60
2022/04/02 00:29:18;;;;;;;14.30;9.70;;;;;;;-0.73;88.89;94594.63;10323736;28;98755;-61
2022/04/02 00:34:21;;;;;;;13.55;9.70;;;;;;;-0.68;89.40;94592.53;10314968;28;99981;-61
2022/04/02 00:39:25;;;;;;;15.65;10.82;;;;;;;-0.75;89.14;94592.19;10307628;28;97217;-61
2022/04/02 00:44:28;;;;;;;13.88;9.75;;;;;;;-0.76;89.78;94590.53;10314802;28;96872;-61
2022/04/02 00:49:31;;;;;;;12.52;8.77;;;;;;;-0.74;89.23;94587.88;10308372;28;96843;-61
2022/04/02 00:54:36;;;;;;;13.65;10.13;;;;;;;-0.76;89.78;94575.16;10329278;28;96917;-61
2022/04/02 00:59:38;;;;;;;11.35;8.43;;;;;;;-0.74;89.81;94583.53;10330793;28;98155;-61
2022/04/02 01:04:42;;;;;;;14.85;10.23;;;;;;;-0.77;89.57;94583.81;10328309;28;99070;-61
2022/04/02 01:09:47;;;;;;;13.45;9.60;;;;;;;-0.72;89.89;94576.56;10318167;28;96880;-61
2022/04/02 01:14:49;;;;;;;14.35;9.77;;;;;;;-0.66;89.20;94592.41;10322783;28;98480;-60
2022/04/02 01:19:53;;;;;;;11.50;8.18;;;;;;;-0.62;89.27;94586.09;10318816;28;96740;-61
2022/04/02 01:24:57;;;;;;;17.90;9.65;;;;;;;-0.71;90.11;94585.88;10324406;28;96868;-61
2022/04/02 01:30:00;;;;;;;11.43;8.02;;;;;;;-0.75;89.17;94592.19;10308673;28;99794;-61
2022/04/02 01:35:03;;;;;;;10.95;7.80;;;;;;;-0.71;89.34;94593.56;10326579;28;97799;-60
2022/04/02 01:40:08;;;;;;;12.82;8.88;;;;;;;-0.69;89.72;94600.34;10335170;28;96781;-61
2022/04/02 01:45:13;;;;;;;11.73;7.68;;;;;;;-0.64;89.49;94598.22;10319958;28;96734;-61
2022/04/02 01:50:15;;;;;;;7.82;5.97;;;;;;;-0.57;89.06;94601.94;10317026;28;96865;-61
2022/04/02 01:55:20;;;;;;;9.80;6.80;;;;;;;-0.57;89.33;94604.50;10326209;28;101790;-61
2022/04/02 02:00:23;;;;;;;8.77;7.00;;;;;;;-0.61;88.97;94592.88;10325493;28;97022;-60
2022/04/02 02:05:26;;;;;;;8.57;6.25;;;;;;;-0.61;88.64;94592.88;10335533;28;96865;-60
2022/04/02 02:10:32;;;;;;;7.88;6.00;;;;;;;-0.63;88.15;94592.16;10311822;28;97083;-61
2022/04/02 02:15:35;;;;;;;7.93;6.03;;;;;;;-0.65;88.41;94592.31;10312488;28;96861;-61
2022/04/02 02:20:38;;;;;;;8.95;5.88;;;;;;;-0.72;88.63;94593.69;10321794;28;97849;-60
2022/04/02 02:25:42;;;;;;;9.25;6.35;;;;;;;-0.66;87.87;94594.97;10335424;28;97043;-60
2022/04/02 02:30:46;;;;;;;8.30;6.43;;;;;;;-0.69;88.51;94584.97;10332467;28;96831;-60
2022/04/02 02:35:51;;;;;;;8.52;6.25;;;;;;;-0.72;87.66;94591.13;10315913;28;97006;-61
2022/04/02 02:40:56;;;;;;;10.27;7.60;;;;;;;-0.78;87.77;94582.16;10335181;28;100042;-61
2022/04/02 02:45:59;;;;;;;9.38;7.28;;;;;;;-0.88;88.54;94588.94;10314180;28;97020;-60
2022/04/02 02:51:02;;;;;;;10.52;7.25;;;;;;;-0.95;88.49;94587.78;10303232;28;96960;-60
2022/04/02 02:56:07;;;;;;;10.43;7.22;;;;;;;-1.03;88.45;94595.25;10320917;28;96920;-61
2022/04/02 03:01:11;;;;;;;8.90;6.70;;;;;;;-1.02;89.37;94602.00;10333880;28;96910;-60
2022/04/02 03:06:14;;;;;;;8.90;6.55;;;;;;;-1.00;89.41;94612.97;10329453;28;96914;-61
2022/04/02 03:11:18;;;;;;;7.43;5.30;;;;;;;-0.97;88.42;94607.59;10319318;28;97838;-60
2022/04/02 03:16:22;;;;;;;7.85;5.97;;;;;;;-0.87;88.55;94608.53;10317918;28;98130;-60
2022/04/02 03:21:25;;;;;;;6.55;5.43;;;;;;;-0.78;88.78;94614.69;10324613;28;98540;-60
2022/04/02 03:26:29;;;;;;;7.43;5.13;;;;;;;-0.79;88.11;94620.75;10301681;28;96865;-61
2022/04/02 03:31:32;;;;;;;4.78;3.67;;;;;;;-0.80;88.83;94619.94;10344025;28;96845;-60
2022/04/02 03:36:35;;;;;;;4.50;3.47;;;;;;;-0.75;88.02;94632.41;10334060;28;97132;-61
2022/04/02 03:41:39;;;;;;;3.40;2.50;;;;;;;-0.76;86.97;94636.69;10309549;28;97881;-60
2022/04/02 03:52:03;;;;;;;4.43;3.03;;;;;;;-0.85;86.96;94641.75;10330484;28;98353;-61
2022/04/02 03:57:08;;;;;;;1.95;1.75;;;;;;;-0.97;85.58;94643.50;10333272;28;97124;-60
2022/04/02 04:02:12;;;;;;;;;;;;;;;-0.97;85.73;94653.75;10333787;28;96658;-60
2022/04/02 04:07:15;;;;;;;1.70;1.20;;;;;;;-1.05;85.46;94656.06;10330306;28;97056;-60
2022/04/02 04:12:20;;;;;;;1.92;1.60;;;;;;;-1.07;85.52;94666.44;10330912;28;96883;-61
2022/04/02 04:17:23;;;;;;;2.30;1.77;;;;;;;-1.04;85.48;94678.22;10332887;28;96906;-60
2022/04/02 04:22:26;;;;;;;2.13;1.65;;;;;;;-1.18;84.31;94672.38;10329683;28;98319;-61
2022/04/02 04:27:30;;;;;;;2.47;1.55;;;;;;;-1.17;85.61;94678.28;10331628;28;96912;-61
2022/04/02 04:32:33;;;;;;;2.70;1.83;;;;;;;-1.28;84.51;94686.78;10315872;28;96755;-61
2022/04/02 04:37:36;;;;;;;2.65;2.00;;;;;;;-1.39;84.38;94697.03;10328560;28;98649;-61
2022/04/02 04:42:40;;;;;;;3.60;2.50;;;;;;;-1.53;84.96;94703.16;10329112;28;98574;-60
2022/04/02 04:47:45;;;;;;;2.85;2.25;;;;;;;-1.61;85.00;94716.50;10307505;28;98632;-61
2022/04/02 04:52:48;;;;;;;3.35;2.63;;;;;;;-1.58;84.38;94723.97;10304342;28;96839;-60
2022/04/02 04:57:53;;;;;;;3.58;2.55;;;;;;;-1.56;85.64;94734.91;10307096;28;96663;-61
2022/04/02 05:02:55;;;;;;;3.58;2.70;;;;;;;-1.54;85.22;94735.63;10300682;28;96970;-60
2022/04/02 05:07:59;;;;;;;3.45;2.70;;;;;;;-1.47;85.45;94738.56;10316695;28;99108;-60
2022/04/02 05:13:04;;;;;;;4.43;3.50;;;;;;;-1.47;85.58;94752.16;10306759;28;97567;-60
2022/04/02 05:18:08;;;;;;;5.72;3.17;;;;;;;-1.44;85.61;94756.25;10299984;28;96864;-60
2022/04/02 05:23:11;;;;;;;5.30;3.58;;;;;;;-1.46;85.82;94755.56;10315603;28;96667;-60
2022/04/02 05:28:16;;;;;;;4.88;3.80;;;;;;;-1.51;85.76;94767.88;10306581;28;96992;-61
2022/04/02 05:33:19;;;;;;;4.20;3.23;;;;;;;-1.48;86.78;94776.16;10303347;28;96968;-61
2022/04/02 05:38:42;;;;;;;3.92;3.15;;;;;;;-1.49;86.54;94787.31;10323717;28;96899;-60
2022/04/02 05:43:46;;;;;;;4.38;3.47;;;;;;;-1.53;86.67;94785.91;10327670;28;97120;-60
2022/04/02 05:48:49;;;;;;;6.18;4.18;;;;;;;-1.55;87.21;94798.03;10312449;28;97148;-60
2022/04/02 05:53:51;;;;;;;5.97;4.57;;;;;;;-1.49;87.61;94800.13;10302534;28;96715;-60
2022/04/02 05:58:56;;;;;;;6.38;4.75;;;;;;;-1.45;86.72;94808.41;10309935;28;96961;-60
2022/04/02 06:03:59;;;;;;;7.25;5.63;;;;;;;-1.46;87.41;94820.41;10314129;28;96886;-60
2022/04/02 06:09:02;;;;;;;8.40;5.93;;;;;;;-1.38;88.53;94834.41;10336176;28;97880;-60
2022/04/02 06:14:06;;;;;;;9.32;6.75;;;;;;;-1.42;88.28;94840.69;10335080;28;97247;-60
2022/04/02 06:19:09;;;;;;;9.27;6.43;;;;;;;-1.32;87.85;94841.66;10326951;28;96956;-60
2022/04/02 06:24:12;;;;;;;8.77;6.32;;;;;;;-1.19;87.96;94850.09;10332005;28;97002;-60
2022/04/02 06:29:16;;;;;;;9.63;7.15;;;;;;;-1.09;88.58;94857.94;10307369;28;97109;-60
2022/04/02 06:34:19;;;;;;;8.63;6.55;;;;;;;-0.96;89.19;94860.41;10326403;28;98082;-60
2022/04/02 06:39:22;;;;;;;11.77;6.85;;;;;;;-0.83;88.73;94871.44;10311910;28;97888;-60
2022/04/02 06:44:29;;;;;;;8.80;6.40;;;;;;;-0.62;88.66;94873.34;10334525;28;98847;-60
2022/04/02 06:49:32;;;;;;;9.00;6.45;;;;;;;-0.54;88.96;94881.31;10332828;28;96821;-60
2022/04/02 06:54:35;;;;;;;8.82;6.72;;;;;;;-0.52;88.65;94890.50;10313545;28;98559;-60
2022/04/02 06:59:41;;;;;;;8.52;6.30;;;;;;;-0.42;88.82;94894.97;10302903;28;97224;-60
2022/04/02 07:04:44;;;;;;;7.55;6.03;;;;;;;-0.30;89.48;94903.50;10315523;28;96951;-61
2022/04/02 07:09:47;;;;;;;8.15;5.78;;;;;;;-0.16;89.11;94911.00;10330413;28;96947;-60
2022/04/02 07:14:51;;;;;;;8.10;6.03;;;;;;;0.04;88.99;94918.00;10332711;28;96774;-60
2022/04/02 07:19:56;;;;;;;8.43;5.88;;;;;;;0.36;89.42;94931.91;10323278;28;98490;-61
2022/04/02 07:24:59;;;;;;;7.82;5.32;;;;;;;0.45;89.39;94943.22;10329396;28;96857;-60
2022/04/02 07:30:04;;;;;;;6.35;4.93;;;;;;;0.41;89.03;94929.78;10332397;28;98179;-60
2022/04/02 07:35:10;;;;;;;6.90;5.30;;;;;;;0.64;89.13;94940.03;10326965;28;97080;-60
2022/04/02 07:40:18;;;;;;;7.40;5.75;;;;;;;0.51;89.20;94945.31;10309210;28;96651;-60
2022/04/02 07:45:30;;;;;;;7.45;5.45;;;;;;;0.59;89.16;94964.34;10322916;28;99859;-61
2022/04/02 07:50:36;;;;;;;6.90;5.30;;;;;;;0.73;89.37;94965.84;10315353;28;97506;-61
2022/04/02 07:55:42;;;;;;;6.82;5.00;;;;;;;1.04;89.38;94971.19;10307440;28;96961;-60
2022/04/02 08:00:53;;;;;;;6.15;4.68;;;;;;;1.15;89.00;94971.13;10308110;28;96804;-61
2022/04/02 08:05:57;;;;;;;6.82;5.10;;;;;;;1.31;88.64;94985.34;10310114;28;96948;-60
2022/04/02 08:11:01;;;;;;;6.65;5.13;;;;;;;1.35;88.63;94986.75;10305492;28;97182;-60
2022/04/02 08:16:06;;;;;;;5.40;4.37;;;;;;;1.36;89.00;94993.53;10307368;28;97505;-60
2022/04/02 08:21:09;;;;;;;4.03;3.43;;;;;;;1.33;88.40;94997.16;10315888;28;97988;-60
2022/04/02 08:26:23;;;;;;;4.75;3.25;;;;;;;1.44;87.98;94995.50;10329176;28;97912;-60
2022/04/02 08:31:46;;;;;;;3.45;2.88;;;;;;;1.27;87.84;95015.66;10331731;28;96915;-60
2022/04/02 08:36:59;;;;;;;3.65;3.10;;;;;;;1.44;88.09;95016.91;10326060;28;96727;-60
2022/04/02 08:43:02;;;;;;;4.15;3.40;;;;;;;1.75;86.69;95022.97;10302309;28;96888;-61
2022/04/02 08:48:24;;;;;;;4.20;3.47;;;;;;;1.67;84.33;95038.22;10315380;28;97165;-60
2022/04/02 08:53:43;;;;;;;4.22;3.40;;;;;;;1.96;85.48;95037.63;10311272;28;96750;-60
2022/04/02 08:59:00;;;;;;;4.47;3.47;;;;;;;2.21;85.39;95046.75;10312406;28;96859;-60
2022/04/02 09:04:53;;;;;;;4.88;3.90;;;;;;;2.30;85.68;95061.47;10316218;28;96917;-61
2022/04/02 09:10:30;;;;;;;4.50;3.78;;;;;;;2.39;85.47;95066.78;10317501;28;97035;-60
2022/04/02 09:15:50;;;;;;;5.80;4.28;;;;;;;2.26;85.31;95070.38;10326756;28;96812;-61
2022/04/02 09:20:57;;;;;;;5.43;4.10;;;;;;;2.24;84.60;95082.56;10317835;28;96798;-60
2022/04/02 09:26:23;;;;;;;5.13;4.15;;;;;;;2.37;84.00;95081.56;10307276;28;97189;-60
2022/04/02 09:31:56;;;;;;;5.18;4.50;;;;;;;2.50;83.79;95082.19;10338358;28;97079;-60
2022/04/02 09:37:04;;;;;;;5.18;4.32;;;;;;;2.54;84.35;95088.72;10323144;28;97007;-60
2022/04/02 09:42:24;;;;;;;5.93;4.65;;;;;;;2.65;84.62;95083.50;10324995;28;96861;-61
2022/04/02 09:47:46;;;;;;;6.47;5.05;;;;;;;2.79;84.94;95094.41;10336261;28;96797;-61
2022/04/02 09:52:55;;;;;;;6.35;4.80;;;;;;;3.19;84.63;95091.88;10324160;28;96800;-61
2022/04/02 09:58:22;;;;;;;5.40;4.32;;;;;;;3.48;83.00;95095.50;10312644;28;96862;-61
2022/04/02 10:03:34;;;;;;;5.20;4.03;;;;;;;3.50;82.22;95101.34;10324498;28;98238;-60
2022/04/02 10:08:48;;;;;;;5.50;4.60;;;;;;;3.58;82.41;95098.91;10307469;28;96813;-61
2022/04/02 10:13:54;;;;;;;4.18;3.60;;;;;;;3.68;82.11;95110.09;10331855;28;98721;-61
2022/04/02 10:19:00;;;;;;;2.90;2.50;;;;;;;3.18;72.33;95107.50;10331452;28;96785;-62
2022/04/02 10:24:21;;;;;;;3.70;3.08;;;;;;;3.71;76.33;95106.41;10318834;28;96896;-61
2022/04/02 10:29:51;;;;;;;3.38;2.65;;;;;;;4.12;74.79;95114.88;10328339;28;97253;-61
2022/04/02 10:34:58;;;;;;;2.55;2.10;;;;;;;4.30;72.99;95112.44;10332435;28;96714;-61
2022/04/02 10:40:05;;;;;;;1.38;1.20;;;;;;;4.06;67.26;95103.34;10334345;28;97509;-61
2022/04/02 10:45:11;;;;;;;3.20;2.38;;;;;;;4.27;71.06;95117.91;10333218;28;96773;-61
2022/04/02 10:50:18;;;;;;;3.20;2.83;;;;;;;4.05;70.92;95124.94;10313237;28;97644;-60
2022/04/02 10:55:28;;;;;;;3.45;2.33;;;;;;;4.22;70.50;95114.91;10323551;28;99200;-62
2022/04/02 11:00:31;;;;;;;2.90;2.35;;;;;;;4.19;70.83;95121.97;10319493;28;96804;-61
2022/04/02 11:05:36;;;;;;;3.15;2.53;;;;;;;3.97;71.36;95130.00;10325210;28;96893;-63
2022/04/02 11:10:47;;;;;;;2.80;2.47;;;;;;;4.08;71.14;95137.59;10316659;28;96810;-61
2022/04/02 11:15:53;;;;;;;3.60;3.13;;;;;;;4.58;71.42;95147.81;10329457;28;97037;-61
2022/04/02 11:21:04;;;;;;;2.95;2.55;;;;;;;4.80;69.28;95143.28;10316776;28;97369;-61
2022/04/02 11:26:13;;;;;;;4.10;3.08;;;;;;;5.15;69.38;95150.41;10306084;28;97132;-61
2022/04/02 11:31:28;;;;;;;3.40;1.95;;;;;;;4.93;67.64;95146.38;10310538;28;96989;-61
2022/04/02 11:36:42;;;;;;;1.00;0.90;;;;;;;4.65;62.78;95155.84;10311914;28;98392;-61
2022/04/02 11:41:51;;;;;;;1.10;1.00;;;;;;;4.41;62.19;95170.97;10313844;28;97030;-61
2022/04/02 11:46:56;;;;;;;1.30;1.10;;;;;;;4.11;62.70;95181.28;10327109;28;96722;-61
2022/04/02 11:52:05;;;;;;;1.07;0.97;;;;;;;4.10;61.60;95182.22;10327824;28;98650;-61
2022/04/02 11:57:11;;;;;;;1.67;1.10;;;;;;;4.12;60.45;95177.72;10314065;28;96748;-61
2022/04/02 12:02:34;;;;;;;1.40;1.10;;;;;;;4.14;59.15;95175.84;10319663;28;98201;-60
2022/04/02 12:07:42;;;;;;;1.58;1.00;;;;;;;4.52;58.25;95184.56;10329327;28;97159;-61
2022/04/02 12:13:10;;;;;;;1.50;1.10;;;;;;;4.34;55.86;95188.78;10331774;28;97284;-61
2022/04/02 12:18:15;;;;;;;2.45;1.33;;;;;;;4.12;57.21;95189.84;10314286;28;97257;-61
2022/04/02 12:23:19;;;;;;;2.53;1.50;;;;;;;4.20;58.49;95185.63;10320491;28;99975;-60
2022/04/02 12:28:25;;;;;;;7.97;4.27;;;;;;;4.45;57.79;95196.41;10330253;28;96898;-60
2022/04/02 12:33:29;;;;;;;2.17;1.20;;;;;;;4.81;58.41;95203.63;10329461;28;97427;-61
2022/04/02 12:38:33;;;;;;;1.40;1.25;;;;;;;5.11;59.76;95203.44;10328700;28;96736;-61
2022/04/02 12:43:48;;;;;;;1.40;1.30;;;;;;;5.15;60.14;95206.56;10314344;28;97140;-61
2022/04/02 12:48:51;;;;;;;1.80;1.20;;;;;;;5.12;61.20;95215.41;10331203;28;97230;-61
2022/04/02 12:54:03;;;;;;;2.08;1.88;;;;;;;4.69;62.11;95229.63;10318837;28;98632;-61
2022/04/02 12:59:18;;;;;;;2.13;1.65;;;;;;;4.39;62.62;95222.81;10322930;28;98521;-61
2022/04/02 13:04:25;;;;;;;3.05;1.80;;;;;;;4.29;63.60;95227.16;10319996;28;96916;-61
2022/04/02 13:09:32;;;;;;;1.70;1.60;;;;;;;4.19;62.97;95235.72;10326139;28;97030;-61
2022/04/02 13:14:43;;;;;;;1.58;1.40;;;;;;;4.36;63.12;95238.59;10314058;28;98161;-61
2022/04/02 13:25:22;;;;;;;1.77;1.45;;;;;;;5.14;63.17;95230.81;10307931;28;97440;-60
2022/04/02 13:30:33;;;;;;;1.83;1.63;;;;;;;4.86;62.88;95248.81;10317307;28;96971;-61
2022/04/02 13:35:40;;;;;;;1.77;1.48;;;;;;;4.79;63.32;95258.09;10309911;28;96919;-61
2022/04/02 13:40:46;;;;;;;1.92;1.50;;;;;;;4.80;62.17;95261.50;10303569;28;97077;-61
2022/04/02 13:45:53;;;;;;;1.65;1.20;;;;;;;4.77;61.17;95257.41;10325250;28;97597;-60
2022/04/02 13:51:03;;;;;;;1.70;1.42;;;;;;;4.80;61.69;95267.47;10329024;28;96924;-61
2022/04/02 13:56:11;;;;;;;1.27;1.17;;;;;;;4.84;61.79;95281.78;10316351;28;98613;-61
2022/04/02 14:01:17;;;;;;;2.40;2.10;;;;;;;4.79;62.20;95291.72;10328328;28;96719;-61
2022/04/02 14:06:24;;;;;;;2.78;2.50;;;;;;;4.76;62.66;95303.16;10326692;28;98919;-61
2022/04/02 14:11:35;;;;;;;2.35;2.13;;;;;;;4.51;64.09;95308.88;10329083;28;96835;-61
2022/04/02 14:16:40;;;;;;;2.47;2.28;;;;;;;4.12;64.36;95309.56;10331705;28;96888;-62
2022/04/02 14:21:54;;;;;;;3.10;2.80;;;;;;;4.03;64.65;95302.59;10328568;28;98762;-61
2022/04/02 14:27:15;;;;;;;3.47;2.75;;;;;;;4.00;64.42;95308.84;10328761;28;97532;-62
2022/04/02 14:32:59;;;;;;;5.40;2.60;;;;;;;3.93;64.32;95319.81;10301883;28;96884;-61
2022/04/02 14:38:38;;;;;;;3.05;2.60;;;;;;;3.70;64.93;95338.06;10324107;28;96916;-61
2022/04/02 14:44:18;;;;;;;2.45;2.05;;;;;;;3.61;65.64;95347.41;10206674;28;97364;-61
2022/04/02 14:49:58;;;;;;;2.45;2.22;;;;;;;3.62;66.23;95356.78;10205514;28;97009;-61
2022/04/02 14:55:36;;;;;;;2.50;2.13;;;;;;;3.61;67.22;95356.91;10184957;28;97190;-61
2022/04/02 15:01:07;;;;;;;2.58;2.20;;;;;;;3.07;67.78;95369.03;10201638;28;98401;-61
2022/04/02 15:06:13;;;;;;;2.95;2.28;;;;;;;3.25;67.98;95367.53;10200648;28;96999;-60
2022/04/02 15:11:19;;;;;;;3.00;2.42;;;;;;;3.50;67.77;95372.47;10200635;28;101905;-61
2022/04/02 15:16:29;;;;;;;3.25;2.70;;;;;;;3.57;68.27;95373.59;10190513;28;97800;-60
2022/04/02 15:21:33;;;;;;;2.50;2.10;;;;;;;3.46;68.48;95379.66;10316380;28;98460;-60
2022/04/02 15:26:45;;;;;;;3.43;2.57;;;;;;;3.34;69.01;95386.63;10315811;28;97175;-60
2022/04/02 15:32:00;;;;;;;2.58;2.28;;;;;;;3.38;69.29;95397.53;10321309;28;96817;-60
2022/04/02 15:37:06;;;;;;;2.75;2.33;;;;;;;3.40;68.49;95401.63;10318418;28;96933;-60
2022/04/02 15:42:22;;;;;;;3.22;2.53;;;;;;;3.45;67.62;95407.25;10310053;28;97493;-61
2022/04/02 15:47:45;;;;;;;2.22;1.95;;;;;;;3.52;68.55;95410.16;10327564;28;98525;-60
2022/04/02 15:53:17;;;;;;;2.33;2.08;;;;;;;3.67;68.45;95408.06;10330107;28;99028;-61
2022/04/02 15:58:29;;;;;;;3.10;2.53;;;;;;;3.78;69.32;95420.94;10319627;28;102034;-60
2022/04/02 16:03:44;;;;;;;3.08;2.60;;;;;;;3.72;68.48;95426.59;10328156;28;97285;-60
2022/04/02 16:09:04;;;;;;;;;;;;;;;4.14;68.77;95430.91;10330050;28;97155;-60
2022/04/02 16:14:10;;;;;;;3.33;2.60;;;;;;;4.05;68.03;95429.09;10300195;28;96762;-60
2022/04/02 16:19:29;;;;;;;4.63;2.50;;;;;;;3.87;68.23;95440.00;10306825;28;97921;-60
2022/04/02 16:24:33;;;;;;;3.72;2.63;;;;;;;3.70;68.88;95438.81;10323329;28;97919;-60
2022/04/02 16:29:38;;;;;;;2.80;2.42;;;;;;;3.49;68.93;95446.53;10321439;28;99512;-60
2022/04/02 16:34:42;;;;;;;;;;;;;;;3.37;69.25;95438.00;10314922;28;96924;-60
2022/04/02 16:39:47;;;;;;;2.85;2.55;;;;;;;3.38;68.89;95442.25;10318098;28;96920;-60
2022/04/02 16:44:52;;;;;;;;;;;;;;;3.50;68.79;95442.19;10320763;28;98231;-61
2022/04/02 16:49:56;;;;;;;3.72;3.33;;;;;;;3.66;69.95;95446.91;10312784;28;96960;-61
2022/04/02 16:55:00;;;;;;;4.93;3.67;;;;;;;3.80;70.28;95460.38;10329755;28;100480;-60
2022/04/02 17:00:08;;;;;;;3.97;3.28;;;;;;;3.91;69.57;95469.00;10312804;28;98684;-60
2022/04/02 17:05:12;;;;;;;4.80;3.10;;;;;;;3.83;69.25;95475.63;10317119;28;99768;-61
2022/04/02 17:10:20;;;;;;;4.85;3.60;;;;;;;3.75;69.96;95483.16;10321522;28;96733;-61
2022/04/02 17:15:26;;;;;;;4.63;4.13;;;;;;;3.43;69.64;95484.00;10316899;28;100052;-60
2022/04/02 17:20:30;;;;;;;4.00;3.55;;;;;;;3.18;70.58;95492.06;10313182;28;96865;-60
2022/04/02 17:25:34;;;;;;;4.10;3.30;;;;;;;3.01;70.59;95494.19;10305987;28;96848;-60
2022/04/02 17:30:46;;;;;;;4.45;3.80;;;;;;;2.75;71.22;95493.63;10322387;28;96874;-60
2022/04/02 17:35:53;;;;;;;4.32;3.35;;;;;;;2.31;71.98;95498.66;10312410;28;97500;-60
2022/04/02 17:41:11;;;;;;;3.72;3.15;;;;;;;1.88;72.33;95506.97;10305826;28;101726;-61
2022/04/02 17:46:27;;;;;;;4.05;3.42;;;;;;;1.55;72.78;95517.97;10305955;28;96766;-60
2022/04/02 17:51:31;;;;;;;4.47;3.60;;;;;;;1.43;72.52;95509.38;10326857;28;96696;-60
2022/04/02 17:56:34;;;;;;;6.13;4.03;;;;;;;1.27;72.63;95524.28;10336475;28;96800;-60
2022/04/02 18:01:40;;;;;;;4.53;3.88;;;;;;;1.20;73.09;95523.06;10333510;28;97083;-60
2022/04/02 18:06:45;;;;;;;4.63;3.65;;;;;;;1.26;73.00;95532.91;10318779;28;99777;-60
2022/04/02 18:11:48;;;;;;;4.25;3.47;;;;;;;1.36;72.30;95544.22;10330628;28;99790;-60
2022/04/02 18:16:52;;;;;;;4.47;3.38;;;;;;;1.38;72.31;95544.91;10332468;28;97772;-60
2022/04/02 18:21:55;;;;;;;3.42;3.13;;;;;;;1.34;71.81;95557.19;10316097;28;96873;-60
2022/04/02 18:26:59;;;;;;;3.70;2.70;;;;;;;1.34;70.33;95564.09;10325325;28;96891;-60
2022/04/02 18:32:03;;;;;;;6.18;3.75;;;;;;;1.37;69.14;95566.44;10327426;28;96965;-60
2022/04/02 18:37:06;;;;;;;6.97;4.90;;;;;;;1.40;70.32;95571.38;10320132;28;96893;-60
2022/04/02 18:42:09;;;;;;;6.50;4.80;;;;;;;1.31;70.51;95584.88;10331330;28;96825;-60
2022/04/02 18:47:14;;;;;;;5.47;4.80;;;;;;;1.23;71.32;95587.19;10329961;28;98673;-60
2022/04/02 18:52:18;;;;;;;5.43;4.32;;;;;;;1.18;71.62;95593.47;10330319;28;97852;-59
2022/04/02 18:57:21;;;;;;;5.78;4.22;;;;;;;1.12;71.13;95606.75;10333574;28;97097;-59
2022/04/02 19:02:26;;;;;;;2.70;2.40;;;;;;;1.09;69.62;95609.53;10334196;28;96877;-60
2022/04/02 19:07:29;;;;;;;3.13;2.40;;;;;;;1.00;68.57;95612.75;10324445;28;98501;-60
2022/04/02 19:12:32;;;;;;;2.75;2.13;;;;;;;0.93;65.59;95619.22;10324996;28;98600;-59
2022/04/02 19:17:37;;;;;;;2.75;2.00;;;;;;;0.84;65.24;95625.78;10305465;28;98537;-59
2022/04/02 19:22:41;;;;;;;3.30;2.13;;;;;;;0.80;65.54;95635.47;10312013;28;98072;-59
2022/04/02 19:27:44;;;;;;;2.15;1.58;;;;;;;0.76;65.49;95639.19;10329104;28;97065;-59
2022/04/02 19:32:48;;;;;;;4.28;3.03;;;;;;;0.74;64.44;95646.19;10330483;28;96814;-59
2022/04/02 19:37:51;;;;;;;5.63;3.92;;;;;;;0.72;64.96;95654.91;10333086;28;99665;-58
2022/04/02 19:42:54;;;;;;;7.90;4.88;;;;;;;0.64;64.52;95660.56;10329473;28;96775;-58
2022/04/02 19:47:58;;;;;;;3.83;2.10;;;;;;;0.53;64.29;95661.28;10301245;28;96942;-59
2022/04/02 19:53:02;;;;;;;3.97;2.33;;;;;;;0.47;63.58;95660.84;10332063;28;97051;-59
2022/04/02 19:58:05;;;;;;;2.63;2.10;;;;;;;0.38;63.75;95667.41;10312079;28;96927;-58
2022/04/02 20:03:09;;;;;;;3.00;1.98;;;;;;;0.33;63.44;95665.13;10318712;28;96901;-59
2022/04/02 20:08:13;;;;;;;2.60;2.13;;;;;;;0.28;63.09;95674.88;10313986;28;97010;-59
2022/04/02 20:13:16;;;;;;;2.20;1.73;;;;;;;0.31;62.61;95674.69;10331426;28;96762;-59
2022/04/02 20:18:20;;;;;;;4.55;2.58;;;;;;;0.32;62.50;95681.44;10329761;28;97385;-59
2022/04/02 20:23:24;;;;;;;3.72;2.53;;;;;;;0.32;62.30;95686.59;10331010;28;96880;-59
2022/04/02 20:28:28;;;;;;;3.17;2.17;;;;;;;0.32;60.54;95686.59;10308449;28;96903;-58
2022/04/02 20:33:32;;;;;;;3.47;2.35;;;;;;;0.30;60.09;95683.31;10319547;28;96893;-59
2022/04/02 20:38:35;;;;;;;2.30;1.77;;;;;;;0.27;59.25;95687.81;10322344;28;96878;-60
2022/04/02 20:43:38;;;;;;;2.65;1.95;;;;;;;0.20;59.80;95693.38;10321296;28;96838;-59
2022/04/02 20:48:42;;;;;;;3.30;1.80;;;;;;;0.04;60.78;95695.25;10308175;28;98057;-59
2022/04/02 20:53:45;;;;;;;3.15;1.95;;;;;;;0.01;60.69;95706.53;10329725;28;96917;-59
2022/04/02 20:58:48;;;;;;;1.75;1.55;;;;;;;-0.07;61.62;95716.47;10317557;28;96897;-59
2022/04/02 21:03:52;;;;;;;3.13;2.28;;;;;;;-0.13;61.78;95721.97;10327108;28;97647;-60
2022/04/02 21:08:55;;;;;;;2.83;1.98;;;;;;;-0.10;61.90;95726.09;10331460;28;96809;-60
2022/04/02 21:13:58;;;;;;;3.13;2.38;;;;;;;-0.08;61.59;95725.06;10302340;28;97858;-60
2022/04/02 21:19:02;;;;;;;2.80;2.00;;;;;;;0.02;61.23;95722.78;10306249;28;97083;-59
2022/04/02 21:24:05;;;;;;;2.10;1.75;;;;;;;0.08;61.17;95730.09;10318897;28;97068;-59
2022/04/02 21:29:09;;;;;;;2.92;2.20;;;;;;;0.09;61.94;95734.31;10335822;28;96740;-60
2022/04/02 21:34:13;;;;;;;3.40;2.58;;;;;;;0.13;62.55;95733.19;10335522;28;96859;-59
2022/04/02 21:39:17;;;;;;;3.97;2.57;;;;;;;0.21;62.70;95733.53;10319961;28;96853;-60
2022/04/02 21:44:19;;;;;;;6.38;3.88;;;;;;;0.14;62.74;95734.84;10321358;28;98581;-59
2022/04/02 21:49:24;;;;;;;6.75;3.97;;;;;;;0.14;64.03;95742.53;10333187;28;97206;-59
2022/04/02 21:54:27;;;;;;;7.50;5.20;;;;;;;0.13;64.39;95740.88;10335567;28;97652;-59
2022/04/02 21:59:30;;;;;;;6.40;4.95;;;;;;;0.17;64.74;95746.69;10335772;28;97394;-59
2022/04/02 22:04:34;;;;;;;7.32;5.32;;;;;;;0.13;65.38;95752.91;10321856;28;96862;-59
2022/04/02 22:09:37;;;;;;;7.43;5.38;;;;;;;0.17;65.54;95749.25;10336948;28;98495;-59
2022/04/02 22:14:41;;;;;;;7.18;5.40;;;;;;;0.21;65.89;95751.50;10319165;28;96893;-59
2022/04/02 22:19:46;;;;;;;7.28;5.65;;;;;;;0.20;66.52;95749.88;10318425;28;97772;-59
2022/04/02 22:24:49;;;;;;;8.40;5.63;;;;;;;0.23;66.48;95751.41;10333293;28;96789;-59
2022/04/02 22:29:52;;;;;;;9.40;5.90;;;;;;;0.29;67.18;95747.63;10322087;28;99446;-58
2022/04/02 22:34:57;;;;;;;8.40;5.53;;;;;;;0.37;66.28;95756.50;10333568;28;96680;-59
2022/04/02 22:40:08;;;;;;;7.53;5.20;;;;;;;0.31;66.35;95756.91;10325948;28;97060;-59
2022/04/02 22:45:11;;;;;;;6.93;5.40;;;;;;;0.21;66.99;95763.53;10309608;28;96765;-59
2022/04/02 22:50:15;;;;;;;7.72;6.03;;;;;;;0.27;67.56;95757.19;10333760;28;96699;-59
2022/04/02 22:55:18;;;;;;;7.57;5.75;;;;;;;0.32;66.77;95768.81;10332027;28;98018;-59
2022/04/02 23:00:22;;;;;;;7.20;5.80;;;;;;;0.31;67.79;95774.88;10329617;28;97261;-60
2022/04/02 23:05:26;;;;;;;8.88;5.65;;;;;;;0.27;68.00;95775.16;10300857;28;96921;-59
2022/04/02 23:10:29;;;;;;;6.70;5.37;;;;;;;0.20;68.05;95779.84;10308005;28;96896;-59
2022/04/02 23:15:32;;;;;;;7.20;5.45;;;;;;;0.18;68.08;95781.69;10313048;28;96939;-59
2022/04/02 23:20:36;;;;;;;6.85;4.75;;;;;;;0.20;67.84;95785.00;10266729;28;1436270;-59
2022/04/02 23:25:39;;;;;;;5.90;4.10;;;;;;;0.19;67.49;95788.50;10308568;28;96967;-58
2022/04/02 23:30:42;;;;;;;5.90;4.20;;;;;;;0.21;66.74;95794.38;10316759;28;96958;-59
2022/04/02 23:35:46;;;;;;;6.15;4.20;;;;;;;0.21;66.52;95791.78;10303248;28;97745;-59
2022/04/02 23:40:50;;;;;;;6.55;4.45;;;;;;;0.16;66.77;95788.69;10321017;28;97555;-59
2022/04/02 23:45:53;;;;;;;6.85;4.65;;;;;;;0.11;66.06;95785.56;10311014;28;96705;-59
2022/04/02 23:50:57;;;;;;;7.22;4.90;;;;;;;0.10;66.59;95800.16;10307363;28;96768;-59
2022/04/02 23:56:00;;;;;;;5.90;4.55;;;;;;;0.14;65.98;95790.53;10321106;28;96937;-59
